Pagrindinis puslapis
METAR-TAF:

METAR-TAF

Oro uostai :

Liubekas, Vokietija

platuma: 53-49N, ilguma: 010-42E, Aukštis: 14 m

Dabartinis oras

Ataskaita buvo paskelbta 14 minutes, ne 10:20 UTC
Vėjas 15 kt iš Šiaurės/Šiaurės Rytų
Temperatūra 17°C
Drėgmė 55%
Slėgis 1025 hPa
Matomumas 10 km arba daugiau
nėra debesų žemiau 1500 m ir nėra kamuolinių lietaus debesų

METAR: EDHL 311020Z 03015KT CAVOK 17/08 Q1025

Laikas: 12:34 (10:34 UTC)

Prognozė

Ataskaita buvo paskelbta 2 valandos ir 34 minutes, ne 08:00 UTC
Prognozė galioja nuo 31 metu 09 UTC su 31 metu 18 UTC
Vėjas 13 kt iš Šiaurės/Šiaurės Rytų
Matomumas 10 km arba daugiau
nėra debesų žemiau 1500 m ir nėra kamuolinių lietaus debesų
Laikinai
nuo 31 metu 09 UTC su 31 metu 18 UTC
Vėjas 15 kt iš Rytų/Šiaurės Rytų su gūsio iki 25 kt

TAF: EDHL 310800Z 3109/3118 03013KT CAVOK TEMPO 3109/3118 06015G25KT

Orai ataskaitas ir orų prognozės (METAR, TAF).

turimą stotys yra geltonos ir raudonos taškus žemėlapyje.

Perkelti pele per norėdami pamatyti stoties vardą.

Tada spustelėkite, norėdami matyti oro stebėjimo ir prognozės.

Norėdami pakeisti žemėlapį: spustelėkite ant žalios mygtukų su juodo kryžiaus žemyn,; žalią mygtuką su brūkšneliu, jei norite nutolinti; arba žalių rodyklių gretimoms žemėlapius.


METAR-TAF: